South Van Buren, Missouri
Current Conditions -  °F | °C
As of 12:53 AM on Sunday 23 Nov 2014 (Local Time) from KPOF Reporting Station
Overcast Overcast  
Wind Chill: 50°   Ceiling: 4400
Heat Index: 50°   Visibility: 10mi
Dew Point: 41°   Wind: 5mph
Humidity: 71%   Direction: 160°SSE
Pressure: 29.86"   Gusts: NA
Location:  36.9608°N, 90.9923°W
Report Text: KPOF 230653Z AUTO 16004KT 10SM OVC044 10/05 A2986 RMK AO2 SLP112 T01000050
Loading
Personal Weather Stations






























Interactive Weather Map New forecast layout! Learn more

10-Day Weather Forecast

Advertisements
Track Severe Weather on mobile